Portada
METAR-TAF:

METAR-TAF

Aeroports :

Barranquilla, Colòmbia

latitud: 10-53N, longitud: 074-47W, altitud: 14 m

Observació

L'informe es va fer fa 17 minuts, a les 21:00 UTC
Vent 12 kt del Nord/Nord-Est
Temperatura 31°C
Humitat 66%
Pressió 1008 hPa
Visibilitat 10 km o més
Escasses núvols a una alçada de 1500 ft

METAR: SKBQ 222100Z 02012KT 9999 FEW015 31/24 A2977 NOSIG

Hora: 16:17 (21:17 UTC)

Pronòstic

L'informe es va fer fa 4 hores i 47 minuts, a les 16:30 UTC
Pronòstic vàlid del 22 a les 18 UTC al 23 a les 18 UTC
Vent 10 kt del Nord/Nord-Est
Visibilitat 10 km o més
Núvols disperses a una alçada de 1500 ft

TAF: SKBQ 221630Z 2218/2318 02010KT 9999 SCT015 TX33/2317Z TN25/2310Z

Observacions i pronòstics meteorològics de més de 4000 aeroports (METAR i TAF).

Les estacions disponibles són els punts grocs i vermells al mapa.

Posi el ratolí al punt desitjat per veure el nom de l'estació.

Feu clic per veure les observacions i els pronòstics meteorològics.

Per canviar el mapa: feu clic els botons verds amb una creu de color negre per apropar; al botó verd amb un guió per allunyar la imatge; o en les fletxes verdes per a mapes adjacents.


METAR-TAF: